Time;durP1;ratioP1;P1;durP2;ratioP2;P2;SDS_P1;SDS_P2;PMS_P1;PMS_P2;Temp;Humidity;BMP_temperature;BMP_pressure;BME280_temperature;BME280_humidity;BME280_pressure;Samples;Min_cycle;Max_cycle;Signal;HPM_P1;HPM_P2
2022/05/07 00:01:40;;;;;;;6.03;4.95;;;;;;;14.78;62.49;101831.91;5005332;28;20237;-53
2022/05/07 00:04:06;;;;;;;5.72;5.00;;;;;;;14.74;63.35;101840.72;5005828;28;20265;-53
2022/05/07 00:06:32;;;;;;;4.65;4.22;;;;;;;14.73;62.97;101835.44;5000586;28;20320;-52
2022/05/07 00:08:59;;;;;;;6.03;5.00;;;;;;;14.68;63.11;101826.63;5002278;28;20240;-53
2022/05/07 00:11:25;;;;;;;5.22;4.78;;;;;;;14.62;63.08;101827.50;5000919;28;20257;-52
2022/05/07 00:13:53;;;;;;;5.40;4.90;;;;;;;14.62;63.41;101829.28;4995520;28;20234;-51
2022/05/07 00:19:03;;;;;;;6.00;4.45;;;;;;;14.55;63.27;101828.38;4995377;28;20606;-53
2022/05/07 00:21:30;;;;;;;4.90;4.40;;;;;;;14.55;62.96;101826.63;4995538;28;20295;-53
2022/05/07 00:23:57;;;;;;;5.28;4.60;;;;;;;14.55;63.08;101823.97;5007254;28;20330;-52
2022/05/07 00:26:23;;;;;;;6.68;5.60;;;;;;;14.51;63.14;101826.63;5003546;28;20283;-54
2022/05/07 00:28:50;;;;;;;7.25;4.57;;;;;;;14.49;63.31;101823.06;5000612;28;20233;-52
2022/05/07 00:31:17;;;;;;;5.90;4.75;;;;;;;14.50;62.90;101815.19;4999510;28;20248;-52
2022/05/07 00:33:44;;;;;;;5.50;5.00;;;;;;;14.48;62.99;101819.53;5000675;28;20246;-53
2022/05/07 00:36:10;;;;;;;5.75;4.53;;;;;;;14.49;63.18;101818.66;5000804;28;20327;-51
2022/05/07 00:38:36;;;;;;;6.07;4.22;;;;;;;14.49;63.07;101813.38;5007226;28;20241;-54
2022/05/07 00:41:03;;;;;;;4.85;4.40;;;;;;;14.53;61.89;101819.56;4995607;28;20780;-52
2022/05/07 00:43:35;;;;;;;4.95;4.45;;;;;;;14.48;62.00;101816.91;5000998;28;20238;-52
2022/05/07 00:46:01;;;;;;;5.25;4.18;;;;;;;14.44;62.87;101811.63;4998962;28;20237;-53
2022/05/07 00:48:31;;;;;;;5.35;4.85;;;;;;;14.44;63.01;101823.06;5007090;28;20237;-53
2022/05/07 00:53:41;;;;;;;6.13;4.15;;;;;;;14.43;62.65;101809.88;5003487;28;20239;-52
2022/05/07 00:56:08;;;;;;;4.03;3.70;;;;;;;14.41;62.38;101812.50;4997215;28;20229;-52
2022/05/07 00:58:39;;;;;;;5.25;4.10;;;;;;;14.30;63.28;101809.84;5000862;28;20670;-52
2022/05/07 01:01:07;;;;;;;5.85;4.63;;;;;;;14.25;64.13;101810.72;4994989;28;20737;-52
2022/05/07 01:03:35;;;;;;;5.07;4.57;;;;;;;14.32;63.65;101810.75;4995577;28;20253;-52
2022/05/07 01:06:01;;;;;;;4.60;4.20;;;;;;;14.32;63.06;101805.47;4993751;28;20292;-52
2022/05/07 01:08:30;;;;;;;5.07;4.28;;;;;;;14.33;62.75;101796.63;5002729;28;20245;-53
2022/05/07 01:10:57;;;;;;;5.30;4.03;;;;;;;14.26;64.62;101808.09;5003813;28;20260;-56
2022/05/07 01:13:23;;;;;;;5.78;4.05;;;;;;;14.24;64.12;101801.91;5005452;28;20257;-54
2022/05/07 01:15:54;;;;;;;6.82;4.95;;;;;;;14.21;63.38;101807.19;5000422;28;20303;-51
2022/05/07 01:18:21;;;;;;;4.10;3.70;;;;;;;14.19;63.49;101802.78;4998963;28;20740;-52
2022/05/07 01:20:49;;;;;;;4.63;4.22;;;;;;;14.17;63.51;101804.53;4995104;28;20260;-53
2022/05/07 01:23:17;;;;;;;3.95;3.55;;;;;;;14.18;63.52;101795.72;4998763;28;20233;-53
2022/05/07 01:25:47;;;;;;;5.80;4.70;;;;;;;14.16;63.50;101795.75;4989916;28;20261;-53
2022/05/07 01:28:14;;;;;;;5.50;4.82;;;;;;;14.21;63.64;101790.47;4998456;28;20241;-51
2022/05/07 01:30:41;;;;;;;5.50;4.50;;;;;;;14.09;63.64;101791.34;4997556;28;20244;-52
2022/05/07 01:33:07;;;;;;;5.35;4.47;;;;;;;14.05;63.78;101794.84;4993543;28;20234;-51
2022/05/07 01:35:33;;;;;;;4.53;4.05;;;;;;;14.04;63.91;101795.75;4997218;28;20237;-52
2022/05/07 01:38:00;;;;;;;5.18;4.68;;;;;;;14.03;63.99;101801.88;5005830;28;20234;-52
2022/05/07 01:40:30;;;;;;;3.90;3.60;;;;;;;14.10;63.93;101795.72;5004633;28;20241;-52
2022/05/07 01:42:57;;;;;;;5.43;4.40;;;;;;;14.03;64.18;101799.25;4998782;28;20261;-52
2022/05/07 01:45:23;;;;;;;5.03;4.47;;;;;;;14.00;63.92;101796.59;4999941;28;20233;-52
2022/05/07 01:50:36;;;;;;;4.60;4.20;;;;;;;13.99;64.51;101792.19;5004446;28;20374;-52
2022/05/07 01:53:03;;;;;;;5.47;4.45;;;;;;;13.95;64.88;101791.31;5004683;28;20236;-52
2022/05/07 01:55:30;;;;;;;6.78;4.95;;;;;;;13.92;64.81;101793.06;5000140;28;20241;-52
2022/05/07 01:57:58;;;;;;;6.10;5.05;;;;;;;13.86;65.27;101793.91;5003777;28;20287;-52
2022/05/07 02:00:24;;;;;;;6.07;3.92;;;;;;;13.87;65.35;101792.19;4990408;28;20229;-55
2022/05/07 02:02:54;;;;;;;5.68;4.60;;;;;;;13.84;65.60;101791.28;5000830;28;20229;-52
2022/05/07 02:05:20;;;;;;;5.22;4.55;;;;;;;13.82;65.50;101786.88;4997733;28;20233;-53
2022/05/07 02:07:46;;;;;;;5.25;4.75;;;;;;;13.81;65.36;101793.91;4997646;28;20850;-53
2022/05/07 02:10:13;;;;;;;5.38;4.88;;;;;;;13.77;65.48;101789.50;5003287;28;20307;-52
2022/05/07 02:12:40;;;;;;;5.03;4.50;;;;;;;13.78;65.59;101790.38;5003747;28;20330;-54
2022/05/07 02:15:07;;;;;;;8.77;4.22;;;;;;;13.73;65.78;101786.88;5002741;28;20703;-52
2022/05/07 02:17:34;;;;;;;4.45;4.05;;;;;;;13.74;65.92;101789.50;5002714;28;20249;-54
2022/05/07 02:20:02;;;;;;;4.95;4.45;;;;;;;13.75;65.90;101790.38;4997355;28;20648;-52
2022/05/07 02:22:28;;;;;;;5.68;4.38;;;;;;;13.71;66.11;101781.56;5002766;28;20773;-53
2022/05/07 02:24:55;;;;;;;4.38;3.97;;;;;;;13.74;66.10;101772.78;4996376;28;20291;-52
2022/05/07 02:27:21;;;;;;;6.28;4.40;;;;;;;13.75;66.23;101775.41;4997128;28;20292;-52
2022/05/07 02:29:49;;;;;;;5.13;4.63;;;;;;;13.73;66.27;101769.25;5003318;28;20708;-53
2022/05/07 02:32:17;;;;;;;5.43;4.43;;;;;;;13.82;65.85;101769.25;5005437;28;20314;-52
2022/05/07 02:34:44;;;;;;;4.63;4.22;;;;;;;13.75;66.09;101764.84;4998691;28;20249;-52
2022/05/07 02:37:11;;;;;;;4.15;3.85;;;;;;;13.78;65.71;101770.13;5005364;28;20639;-52
2022/05/07 02:39:37;;;;;;;4.88;4.43;;;;;;;13.82;65.97;101766.63;5002854;28;20229;-54
2022/05/07 02:44:50;;;;;;;4.28;3.97;;;;;;;13.72;65.93;101778.03;4992159;28;20287;-52
2022/05/07 02:47:17;;;;;;;4.38;3.85;;;;;;;13.77;65.88;101781.59;5000026;28;20234;-54
2022/05/07 02:49:43;;;;;;;4.72;4.32;;;;;;;13.84;66.02;101786.00;4987980;28;20233;-52
2022/05/07 02:52:10;;;;;;;4.65;4.25;;;;;;;13.85;66.31;101782.47;5001042;28;20751;-53
2022/05/07 02:54:36;;;;;;;4.28;3.90;;;;;;;13.90;66.10;101784.25;4986903;28;20238;-53
2022/05/07 02:57:03;;;;;;;4.53;4.13;;;;;;;13.89;66.17;101782.50;5001240;28;20252;-52
2022/05/07 02:59:29;;;;;;;4.13;3.80;;;;;;;13.83;66.21;101789.53;4994967;28;20244;-53
2022/05/07 03:01:57;;;;;;;4.80;4.40;;;;;;;13.85;66.11;101784.25;4993747;28;20329;-52
2022/05/07 03:04:24;;;;;;;4.47;4.07;;;;;;;13.84;66.11;101780.72;5004046;28;20237;-52
2022/05/07 03:06:53;;;;;;;5.93;4.55;;;;;;;13.79;66.49;101779.84;5002770;28;20256;-56
2022/05/07 03:09:19;;;;;;;4.15;3.75;;;;;;;13.78;66.77;101788.63;5001093;28;20332;-51
2022/05/07 03:11:47;;;;;;;4.35;4.05;;;;;;;13.81;66.92;101793.91;5002480;28;20236;-53
2022/05/07 03:14:14;;;;;;;3.85;3.55;;;;;;;13.83;67.16;101789.53;5000781;28;20291;-51
2022/05/07 03:16:40;;;;;;;4.15;3.75;;;;;;;13.81;67.16;101793.91;5002659;28;20272;-51
2022/05/07 03:19:08;;;;;;;4.60;3.90;;;;;;;13.78;67.35;101793.91;4999571;28;20264;-54
2022/05/07 03:21:35;;;;;;;4.13;3.72;;;;;;;13.77;67.57;101794.78;4998581;28;20261;-53
2022/05/07 03:24:01;;;;;;;4.88;4.47;;;;;;;13.77;67.66;101797.44;5004084;28;20283;-53
2022/05/07 03:26:28;;;;;;;3.85;3.55;;;;;;;13.75;67.77;101785.09;4993513;28;20607;-54
2022/05/07 03:28:55;;;;;;;4.65;4.25;;;;;;;13.72;68.00;101795.63;5005340;28;20319;-53
2022/05/07 03:31:21;;;;;;;4.18;3.55;;;;;;;13.67;68.46;101790.34;5003249;28;20790;-51
2022/05/07 03:33:49;;;;;;;4.32;3.92;;;;;;;13.65;68.61;101794.72;4998095;28;20330;-52
2022/05/07 03:36:18;;;;;;;5.07;4.45;;;;;;;13.67;68.78;101795.63;5003979;28;20226;-54
2022/05/07 03:38:45;;;;;;;3.97;3.67;;;;;;;13.64;69.17;101792.97;5007117;28;20233;-52
2022/05/07 03:41:11;;;;;;;4.47;4.07;;;;;;;13.58;69.09;101792.94;4999203;28;20591;-52
2022/05/07 03:43:40;;;;;;;4.97;4.35;;;;;;;13.54;69.09;101796.44;4998464;28;20291;-53
2022/05/07 03:46:08;;;;;;;3.97;3.65;;;;;;;13.54;69.42;101791.19;4996020;28;20232;-53
2022/05/07 03:48:35;;;;;;;5.38;4.90;;;;;;;13.51;69.75;101785.88;5001201;28;20627;-52
2022/05/07 03:51:01;;;;;;;5.22;4.80;;;;;;;13.48;69.66;101783.22;4994072;28;20233;-53
2022/05/07 03:53:31;;;;;;;5.07;4.63;;;;;;;13.43;69.87;101782.34;5006957;28;20890;-53
2022/05/07 03:56:02;;;;;;;5.25;4.85;;;;;;;13.38;70.22;101789.38;5000706;28;20229;-53
2022/05/07 03:58:29;;;;;;;6.25;4.97;;;;;;;13.31;70.68;101778.78;4992971;28;20779;-52
2022/05/07 04:00:58;;;;;;;4.75;4.35;;;;;;;13.29;70.63;101780.53;5006356;28;20251;-54
2022/05/07 04:03:24;;;;;;;4.72;4.30;;;;;;;13.28;70.96;101788.44;4995207;28;20650;-52
2022/05/07 04:05:51;;;;;;;5.50;4.35;;;;;;;13.26;71.17;101783.16;5003517;28;20237;-51
2022/05/07 04:08:17;;;;;;;5.45;4.90;;;;;;;13.23;71.17;101780.47;4996473;28;20288;-52
2022/05/07 04:10:45;;;;;;;5.18;4.78;;;;;;;13.24;71.10;101784.03;5001281;28;20261;-53
2022/05/07 04:13:12;;;;;;;5.25;4.78;;;;;;;13.20;71.73;101784.84;4999651;28;20261;-52
2022/05/07 04:15:39;;;;;;;5.65;4.85;;;;;;;13.25;71.33;101784.03;4997923;28;20281;-52
2022/05/07 04:18:06;;;;;;;4.90;4.45;;;;;;;13.26;71.31;101784.91;5002714;28;20284;-51
2022/05/07 04:20:32;;;;;;;5.35;4.88;;;;;;;13.27;70.99;101786.69;4994238;28;20795;-51
2022/05/07 04:23:01;;;;;;;5.43;4.25;;;;;;;13.30;71.01;101776.13;4995092;28;20233;-52
2022/05/07 04:25:29;;;;;;;5.80;4.50;;;;;;;13.26;71.38;101785.78;5002725;28;20248;-53
2022/05/07 04:27:57;;;;;;;4.90;4.50;;;;;;;13.22;71.49;101783.97;5000190;28;20494;-52
2022/05/07 04:30:24;;;;;;;5.28;4.75;;;;;;;13.18;72.05;101783.97;5004032;28;20312;-52
2022/05/07 04:32:51;;;;;;;5.07;4.57;;;;;;;13.18;71.86;101781.31;5002468;28;20619;-52
2022/05/07 04:35:18;;;;;;;4.35;3.97;;;;;;;13.18;71.67;101782.19;5002220;28;20723;-52
2022/05/07 04:37:44;;;;;;;4.35;4.05;;;;;;;13.18;72.01;101781.31;5002024;28;20707;-53
2022/05/07 04:40:11;;;;;;;5.32;4.45;;;;;;;13.23;71.81;101788.41;5000734;28;20230;-53
2022/05/07 04:42:40;;;;;;;5.28;4.78;;;;;;;13.29;71.53;101785.81;4999143;28;20588;-53
2022/05/07 04:45:09;;;;;;;4.40;4.03;;;;;;;13.29;71.73;101783.16;4998919;28;20306;-53
2022/05/07 04:47:35;;;;;;;6.38;4.45;;;;;;;13.31;71.73;101781.44;5002005;28;20283;-52
2022/05/07 04:50:01;;;;;;;6.57;4.63;;;;;;;13.37;71.29;101780.56;4993777;28;20267;-52
2022/05/07 04:52:29;;;;;;;4.90;4.40;;;;;;;13.41;71.10;101782.34;4998825;28;20257;-51
2022/05/07 04:54:56;;;;;;;4.88;4.22;;;;;;;13.46;71.15;101782.38;4997636;28;20254;-53
2022/05/07 04:57:25;;;;;;;6.32;4.90;;;;;;;13.50;70.89;101790.28;5002262;28;20765;-68
2022/05/07 04:59:51;;;;;;;5.43;5.03;;;;;;;13.49;70.88;101792.94;4999525;28;20712;-51
2022/05/07 05:02:19;;;;;;;5.35;4.85;;;;;;;13.58;70.57;101785.94;5004449;28;20252;-51
2022/05/07 05:04:45;;;;;;;4.75;4.35;;;;;;;13.63;70.06;101790.34;5000027;28;20789;-51
2022/05/07 05:07:12;;;;;;;4.50;4.10;;;;;;;13.67;70.29;101793.00;4997951;28;20312;-52
2022/05/07 05:09:38;;;;;;;5.00;4.60;;;;;;;13.68;69.79;101794.75;5003311;28;20252;-53
2022/05/07 05:12:06;;;;;;;4.90;4.40;;;;;;;13.66;70.03;101788.59;4997573;28;20715;-53
2022/05/07 05:17:16;;;;;;;4.50;4.10;;;;;;;13.66;70.84;101790.38;4996683;28;20233;-53
2022/05/07 05:19:43;;;;;;;5.82;4.55;;;;;;;13.68;70.52;101789.47;5005469;28;20245;-53
2022/05/07 05:22:13;;;;;;;4.82;4.32;;;;;;;13.72;70.36;101799.16;5007090;28;20259;-52
2022/05/07 05:24:39;;;;;;;5.15;4.75;;;;;;;13.82;70.28;101795.66;4998776;28;20233;-52
2022/05/07 05:27:06;;;;;;;6.93;4.65;;;;;;;13.87;70.27;101800.09;4997908;28;20804;-52
2022/05/07 05:29:33;;;;;;;7.78;4.65;;;;;;;13.84;70.51;101803.59;4996746;28;20280;-52
2022/05/07 05:32:00;;;;;;;6.38;5.03;;;;;;;14.02;69.70;101802.75;4993172;28;20264;-55
2022/05/07 05:34:26;;;;;;;4.28;3.97;;;;;;;13.98;69.43;101808.91;5002241;28;20237;-52
2022/05/07 05:36:57;;;;;;;5.80;4.75;;;;;;;14.01;69.58;101803.66;4989231;28;20229;-53
2022/05/07 05:39:27;;;;;;;7.05;4.50;;;;;;;14.03;69.86;101805.41;5002648;28;20671;-54
2022/05/07 05:41:53;;;;;;;5.18;3.92;;;;;;;14.08;69.80;101805.44;5006396;28;20238;-53
2022/05/07 05:44:19;;;;;;;5.38;4.57;;;;;;;14.13;70.11;101806.31;4995256;28;20260;-53
2022/05/07 05:46:46;;;;;;;4.82;4.07;;;;;;;14.22;69.50;101803.69;5002736;28;20257;-52
2022/05/07 05:49:12;;;;;;;4.80;4.30;;;;;;;14.29;69.30;101805.44;4995381;28;20249;-53
2022/05/07 05:51:39;;;;;;;8.15;4.78;;;;;;;14.38;69.18;101808.97;4993040;28;20237;-52
2022/05/07 05:54:07;;;;;;;4.45;4.05;;;;;;;14.45;68.89;101811.59;4996900;28;20312;-54
2022/05/07 05:56:33;;;;;;;3.88;3.55;;;;;;;14.54;68.43;101810.78;5002692;28;20239;-52
2022/05/07 05:58:59;;;;;;;4.15;3.75;;;;;;;14.64;68.24;101812.53;4999075;28;20225;-52
2022/05/07 06:01:29;;;;;;;5.30;3.97;;;;;;;14.71;67.33;101808.13;5001431;28;20311;-52
2022/05/07 06:03:55;;;;;;;3.88;3.47;;;;;;;14.81;66.93;101804.56;4999520;28;20232;-53
2022/05/07 06:06:21;;;;;;;4.45;3.95;;;;;;;14.93;66.29;101803.69;4998604;28;20264;-52
2022/05/07 06:08:48;;;;;;;4.80;3.58;;;;;;;15.06;65.57;101802.78;4999319;28;20298;-54
2022/05/07 06:11:15;;;;;;;3.45;3.17;;;;;;;15.27;64.34;101802.72;5002205;28;20311;-52
2022/05/07 06:13:43;;;;;;;4.00;3.60;;;;;;;15.44;63.15;101804.41;4996738;28;20230;-51
2022/05/07 06:16:09;;;;;;;5.15;3.75;;;;;;;15.52;63.12;101807.94;5005131;28;20253;-53
2022/05/07 06:18:36;;;;;;;6.38;3.88;;;;;;;15.55;63.13;101799.97;4995005;28;20241;-53
2022/05/07 06:21:04;;;;;;;5.05;3.75;;;;;;;15.59;62.95;101814.06;4997196;28;20233;-53
2022/05/07 06:23:31;;;;;;;3.50;3.20;;;;;;;15.62;62.74;101807.00;5004690;28;20301;-53
2022/05/07 06:28:43;;;;;;;3.67;3.38;;;;;;;15.74;61.09;101801.66;4998894;28;20248;-52
2022/05/07 06:31:10;;;;;;;4.72;3.10;;;;;;;15.84;60.87;101801.63;4996828;28;20264;-52
2022/05/07 06:33:38;;;;;;;3.13;2.92;;;;;;;16.02;59.07;101805.94;4995274;28;20236;-52
2022/05/07 06:36:08;;;;;;;3.53;2.78;;;;;;;16.10;58.78;101804.97;4989800;28;20296;-54
2022/05/07 06:38:34;;;;;;;2.70;2.50;;;;;;;16.15;58.86;101805.84;5003209;28;20655;-52
2022/05/07 06:41:06;;;;;;;3.03;2.83;;;;;;;16.23;59.04;101811.09;4995859;28;20647;-53
2022/05/07 06:43:34;;;;;;;4.82;2.85;;;;;;;16.34;58.33;101803.91;5003201;28;20331;-52
2022/05/07 06:46:02;;;;;;;3.83;2.90;;;;;;;16.40;58.49;101808.31;4992266;28;20598;-55
2022/05/07 06:48:29;;;;;;;2.63;2.42;;;;;;;16.43;58.27;101810.94;4993110;28;20236;-52
2022/05/07 06:50:59;;;;;;;3.00;2.70;;;;;;;16.47;58.61;101810.03;4996431;28;21729;-52
2022/05/07 06:53:25;;;;;;;3.03;2.83;;;;;;;16.56;58.70;101814.34;4997854;28;20237;-52
2022/05/07 06:55:59;;;;;;;3.78;3.33;;;;;;;16.59;58.60;101809.03;4993152;28;20233;-51
2022/05/07 06:58:26;;;;;;;3.65;3.35;;;;;;;16.60;58.42;101811.69;4999382;28;20255;-53
2022/05/07 07:00:53;;;;;;;2.97;2.78;;;;;;;16.64;58.46;101802.81;4998969;28;20295;-53
2022/05/07 07:03:20;;;;;;;4.50;3.53;;;;;;;16.74;57.80;101805.34;5001285;28;20221;-52
2022/05/07 07:05:48;;;;;;;2.50;2.30;;;;;;;16.85;57.72;101811.50;4997164;28;20229;-52
2022/05/07 07:08:14;;;;;;;4.65;2.85;;;;;;;16.93;57.72;101802.53;4994957;28;20229;-53
2022/05/07 07:10:41;;;;;;;4.38;3.17;;;;;;;17.05;56.18;101803.31;4992462;28;20233;-53
2022/05/07 07:13:11;;;;;;;3.67;3.33;;;;;;;17.14;55.00;101797.91;5004030;28;20687;-55
2022/05/07 07:15:39;;;;;;;3.53;2.80;;;;;;;17.26;54.90;101796.88;5001173;28;20238;-52
2022/05/07 07:18:09;;;;;;;3.58;3.28;;;;;;;17.46;54.59;101797.53;5002066;28;20652;-53
2022/05/07 07:20:42;;;;;;;3.25;2.97;;;;;;;17.65;53.86;101803.47;4995998;28;20272;-53
2022/05/07 07:23:11;;;;;;;3.42;3.13;;;;;;;17.88;51.45;101804.06;4993948;28;20280;-52
2022/05/07 07:25:37;;;;;;;3.80;2.95;;;;;;;17.86;51.82;101805.88;4995669;28;20651;-52
2022/05/07 07:28:04;;;;;;;5.15;3.53;;;;;;;17.91;50.44;101807.59;4988597;28;20230;-53
2022/05/07 07:30:30;;;;;;;3.47;3.15;;;;;;;17.94;50.96;101802.25;4994900;28;20240;-53
2022/05/07 07:32:57;;;;;;;6.35;3.55;;;;;;;17.96;50.58;101814.59;5002246;28;20719;-52
2022/05/07 07:35:23;;;;;;;4.55;3.00;;;;;;;18.11;50.44;101814.38;4992666;28;20254;-52
2022/05/07 07:37:51;;;;;;;3.95;2.72;;;;;;;18.28;50.54;101807.91;5002356;28;20322;-54
2022/05/07 07:40:17;;;;;;;3.40;3.10;;;;;;;18.39;50.04;101811.28;5000284;28;20258;-53
2022/05/07 07:42:47;;;;;;;4.20;3.13;;;;;;;18.55;50.05;101804.81;4997959;28;20287;-53
2022/05/07 07:47:59;;;;;;;3.70;3.22;;;;;;;18.58;49.37;101812.75;4997918;28;20606;-53
2022/05/07 07:50:29;;;;;;;3.63;3.33;;;;;;;18.69;49.55;101809.00;4997893;28;20260;-53
2022/05/07 07:52:58;;;;;;;5.90;2.63;;;;;;;18.81;49.57;101815.03;4997792;28;20832;-54
2022/05/07 07:55:36;;;;;;;5.95;3.33;;;;;;;18.93;48.36;101813.94;4995259;28;20295;-52
2022/05/07 07:58:05;;;;;;;5.70;3.28;;;;;;;19.15;47.54;101813.53;4998698;28;20241;-53
2022/05/07 08:00:33;;;;;;;4.57;3.70;;;;;;;19.31;46.76;101820.31;5001979;28;20291;-58
2022/05/07 08:03:01;;;;;;;5.95;4.10;;;;;;;19.45;45.90;101823.56;5002677;28;20229;-53
2022/05/07 08:05:28;;;;;;;5.53;3.50;;;;;;;19.27;46.92;101821.28;5009576;28;20298;-53
2022/05/07 08:13:25;;;;;;;4.90;3.83;;;;;;;19.37;45.61;101825.50;4997915;28;20321;-53
2022/05/07 08:15:51;;;;;;;7.20;4.10;;;;;;;19.46;46.10;101821.78;4999878;28;20226;-54
2022/05/07 08:18:22;;;;;;;4.85;3.67;;;;;;;19.46;45.76;101825.31;5000670;28;20257;-51
2022/05/07 08:20:48;;;;;;;5.55;4.00;;;;;;;19.51;45.89;101819.88;4998745;28;20656;-53
2022/05/07 08:23:16;;;;;;;6.32;4.68;;;;;;;19.41;46.21;101818.31;5001106;28;20704;-53
2022/05/07 08:25:43;;;;;;;5.80;4.38;;;;;;;19.54;45.63;101823.38;5001899;28;20251;-53
2022/05/07 08:28:09;;;;;;;6.10;4.53;;;;;;;19.55;45.59;101811.81;4997508;28;20226;-53
2022/05/07 08:30:36;;;;;;;8.55;4.45;;;;;;;19.35;45.27;101816.69;4997602;28;20249;-54
2022/05/07 08:33:03;;;;;;;6.05;4.15;;;;;;;19.30;46.96;101810.56;5005110;28;20646;-52
2022/05/07 08:35:29;;;;;;;7.40;4.35;;;;;;;19.29;45.54;101811.47;5008164;28;20312;-52
2022/05/07 08:37:56;;;;;;;7.65;4.50;;;;;;;19.38;45.85;101811.28;5004286;28;20642;-53
2022/05/07 08:40:24;;;;;;;8.32;4.40;;;;;;;19.63;46.09;101816.16;5001044;28;20245;-52
2022/05/07 08:42:51;;;;;;;9.18;5.70;;;;;;;19.79;43.71;101807.75;5001903;28;20241;-52
2022/05/07 08:45:17;;;;;;;5.55;4.30;;;;;;;20.12;44.58;101809.72;4998595;28;20764;-51
2022/05/07 08:47:44;;;;;;;9.90;4.85;;;;;;;20.36;44.47;101809.13;5005486;28;20241;-51
2022/05/07 08:50:12;;;;;;;7.05;5.82;;;;;;;20.81;41.76;101813.34;5005507;28;20307;-52
2022/05/07 08:52:40;;;;;;;11.20;5.93;;;;;;;20.49;40.52;101810.56;4999979;28;20239;-52
2022/05/07 08:55:13;;;;;;;7.10;4.55;;;;;;;20.57;41.36;101807.75;4998185;28;20257;-54
2022/05/07 08:57:42;;;;;;;5.60;4.55;;;;;;;20.39;40.90;101809.06;4998023;28;20239;-52
2022/05/07 09:00:09;;;;;;;6.68;4.50;;;;;;;19.99;41.26;101812.66;4999578;28;20225;-52
2022/05/07 09:02:41;;;;;;;4.97;3.97;;;;;;;20.13;41.40;101812.34;5002481;28;20244;-58
2022/05/07 09:05:09;;;;;;;15.80;5.85;;;;;;;20.33;41.43;101814.53;5001248;28;20237;-53
2022/05/07 09:07:40;;;;;;;6.65;5.15;;;;;;;20.51;41.69;101817.69;5004032;28;20609;-52
2022/05/07 09:10:14;;;;;;;7.57;5.05;;;;;;;20.55;42.03;101811.38;4997655;28;20240;-52
2022/05/07 09:12:42;;;;;;;7.07;5.72;;;;;;;20.74;42.19;101809.97;5004400;28;20748;-53
2022/05/07 09:15:09;;;;;;;7.38;4.85;;;;;;;20.88;41.94;101802.47;5007368;28;20907;-54
2022/05/07 09:17:43;;;;;;;6.28;4.38;;;;;;;21.25;41.24;101809.47;5007971;28;20249;-52
2022/05/07 09:20:16;;;;;;;6.10;4.80;;;;;;;21.24;39.23;101815.75;4997107;28;20232;-52
2022/05/07 09:22:56;;;;;;;10.07;4.90;;;;;;;21.41;40.23;101813.50;5009495;28;20622;-52
2022/05/07 09:25:23;;;;;;;7.65;4.95;;;;;;;21.35;39.29;101813.69;5010140;28;20402;-52
2022/05/07 09:27:54;;;;;;;5.68;4.47;;;;;;;21.62;39.67;101805.75;5007941;28;20931;-51
2022/05/07 09:30:30;;;;;;;6.47;5.00;;;;;;;21.81;40.12;101812.31;4998392;28;20229;-52
2022/05/07 09:32:57;;;;;;;6.20;4.60;;;;;;;21.79;38.96;101813.28;5002415;28;20226;-53
2022/05/07 09:38:23;;;;;;;6.45;4.47;;;;;;;22.06;39.06;101807.06;5007202;28;20713;-51
2022/05/07 09:40:49;;;;;;;5.55;4.97;;;;;;;22.06;39.06;101807.06;4999044;28;20233;-51
2022/05/07 09:43:17;;;;;;;6.93;5.43;;;;;;;22.73;37.82;101803.13;5003294;28;20283;-53
2022/05/07 09:45:45;;;;;;;6.38;3.95;;;;;;;22.73;38.63;101803.13;5002601;28;20685;-52
2022/05/07 09:48:12;;;;;;;8.38;5.15;;;;;;;22.72;38.48;101807.59;5003416;28;20225;-53
2022/05/07 09:50:44;;;;;;;4.45;4.05;;;;;;;22.88;38.31;101797.22;5007509;28;20325;-53
2022/05/07 09:58:45;;;;;;;6.10;4.60;;;;;;;22.79;38.00;101787.72;5006964;28;20240;-52
2022/05/07 10:01:34;;;;;;;9.98;4.50;;;;;;;22.65;38.26;101795.34;5000494;28;20279;-53
2022/05/07 10:04:14;;;;;;;9.45;4.93;;;;;;;22.42;38.18;101798.81;5004090;28;20782;-51
2022/05/07 10:06:47;;;;;;;6.28;4.00;;;;;;;21.81;39.25;101798.94;5001135;28;20658;-52
2022/05/07 10:09:24;;;;;;;6.20;4.60;;;;;;;21.59;38.91;101787.16;5002170;28;20237;-52
2022/05/07 10:11:52;;;;;;;8.52;7.35;;;;;;;21.96;38.52;101789.56;5000199;28;20354;-52
2022/05/07 10:14:26;;;;;;;5.57;3.53;;;;;;;;;;5003311;28;20462;-53
2022/05/07 10:16:57;;;;;;;4.13;3.40;;;;;;;22.28;38.43;101779.66;5001883;28;20239;-52
2022/05/07 10:19:34;;;;;;;7.22;4.10;;;;;;;22.30;38.48;101792.06;5000691;28;20237;-54
2022/05/07 10:22:00;;;;;;;5.25;4.63;;;;;;;22.57;38.25;101781.34;5001765;28;20232;-52
2022/05/07 10:24:26;;;;;;;4.43;3.50;;;;;;;22.85;37.87;101775.94;5001033;28;20513;-53
2022/05/07 10:26:53;;;;;;;5.50;4.40;;;;;;;23.20;37.42;101776.44;5000063;28;20253;-53
2022/05/07 10:29:26;;;;;;;5.35;4.18;;;;;;;23.30;36.93;101780.53;5002784;28;20291;-52
2022/05/07 10:32:01;;;;;;;5.68;4.25;;;;;;;23.27;36.62;101773.53;4990215;28;20947;-52
2022/05/07 10:34:28;;;;;;;5.53;3.78;;;;;;;23.18;37.25;101773.84;5001802;28;20236;-55
2022/05/07 10:37:02;;;;;;;4.43;3.58;;;;;;;23.20;36.85;101777.34;4997128;28;20238;-54
2022/05/07 10:39:28;;;;;;;6.88;4.80;;;;;;;23.28;36.47;101769.91;4999457;28;20279;-52
2022/05/07 10:41:55;;;;;;;6.07;4.32;;;;;;;22.97;37.56;101775.50;4998860;28;20256;-51
2022/05/07 10:44:33;;;;;;;3.40;3.05;;;;;;;22.63;37.75;101773.09;4998830;28;20259;-52
2022/05/07 10:47:09;;;;;;;4.75;4.07;;;;;;;22.22;38.23;101772.72;4996681;28;20240;-51
2022/05/07 10:49:36;;;;;;;5.38;3.78;;;;;;;21.91;38.94;101778.16;4997344;28;20594;-52
2022/05/07 10:52:04;;;;;;;6.88;4.50;;;;;;;21.69;40.64;101780.59;4999099;28;20707;-52
2022/05/07 10:54:30;;;;;;;5.43;4.93;;;;;;;21.47;40.99;101784.84;4991862;28;20236;-52
2022/05/07 10:56:58;;;;;;;4.35;3.95;;;;;;;21.80;40.72;101772.28;4999463;28;20317;-53
2022/05/07 10:59:26;;;;;;;4.90;4.47;;;;;;;22.12;39.33;101776.59;5006048;28;20240;-52
2022/05/07 11:02:04;;;;;;;6.20;4.43;;;;;;;22.08;39.60;101782.97;4992686;28;20340;-52
2022/05/07 11:04:30;;;;;;;7.05;5.13;;;;;;;22.18;39.67;101772.84;5000325;28;20229;-52
2022/05/07 11:06:57;;;;;;;3.92;3.58;;;;;;;22.32;40.66;101776.84;5003458;28;20291;-52
2022/05/07 11:09:24;;;;;;;4.78;4.38;;;;;;;22.72;39.42;101767.44;5000987;28;20711;-52
2022/05/07 11:11:54;;;;;;;4.53;4.13;;;;;;;22.65;38.52;101763.22;4999308;28;20284;-53
2022/05/07 11:14:23;;;;;;;11.57;3.88;;;;;;;22.77;39.24;101757.44;5003721;28;20232;-53
2022/05/07 11:16:49;;;;;;;4.88;4.38;;;;;;;23.02;39.15;101759.25;5003974;28;20233;-53
2022/05/07 11:19:28;;;;;;;4.28;3.75;;;;;;;22.76;39.73;101766.41;5008200;28;20234;-51
2022/05/07 11:21:55;;;;;;;4.13;3.78;;;;;;;22.49;40.58;101762.88;4999690;28;20306;-52
2022/05/07 11:24:22;;;;;;;4.18;3.75;;;;;;;22.20;40.52;101768.34;5000476;28;20221;-53
2022/05/07 11:26:52;;;;;;;11.38;4.55;;;;;;;21.84;40.80;101773.91;5003455;28;20836;-53
2022/05/07 11:29:18;;;;;;;3.85;3.55;;;;;;;21.73;41.59;101774.25;4998667;28;20314;-51
2022/05/07 11:31:54;;;;;;;6.43;4.03;;;;;;;21.57;40.83;101772.97;5002632;28;20251;-52
2022/05/07 11:34:28;;;;;;;4.35;4.00;;;;;;;21.67;41.31;101774.44;4999346;28;20903;-54
2022/05/07 11:36:55;;;;;;;4.97;4.20;;;;;;;22.00;40.73;101772.50;5003571;28;20232;-53
2022/05/07 11:39:21;;;;;;;7.68;4.68;;;;;;;22.27;40.72;101768.09;5000549;28;20719;-53
2022/05/07 11:41:53;;;;;;;4.28;3.80;;;;;;;22.53;40.06;101755.63;4997162;28;20244;-52
2022/05/07 11:47:21;;;;;;;11.68;4.85;;;;;;;23.24;38.45;101757.56;4999329;28;20264;-53
2022/05/07 11:49:58;;;;;;;5.13;4.30;;;;;;;23.90;36.74;101756.81;5001334;28;20265;-53
2022/05/07 11:52:27;;;;;;;8.80;3.95;;;;;;;24.13;36.91;101750.50;5005033;28;20244;-53
2022/05/07 11:54:54;;;;;;;8.38;3.88;;;;;;;24.10;36.69;101748.81;5006226;28;20321;-53
2022/05/07 11:57:28;;;;;;;6.07;3.42;;;;;;;24.21;35.40;101751.91;5006569;28;20233;-52
2022/05/07 11:59:54;;;;;;;2.92;2.60;;;;;;;24.51;35.64;101760.53;5008648;28;20259;-54
2022/05/07 12:02:21;;;;;;;5.25;3.30;;;;;;;24.77;35.37;101759.38;5004504;28;20232;-52
2022/05/07 12:04:56;;;;;;;3.88;3.53;;;;;;;24.94;34.17;101752.41;5007380;28;20292;-53
2022/05/07 12:07:23;;;;;;;5.97;4.45;;;;;;;25.11;34.25;101749.00;5006511;28;20255;-53